Time;durP1;ratioP1;P1;durP2;ratioP2;P2;SDS_P1;SDS_P2;PMS_P1;PMS_P2;Temp;Humidity;BMP_temperature;BMP_pressure;BME280_temperature;BME280_humidity;BME280_pressure;Samples;Min_cycle;Max_cycle;Signal;HPM_P1;HPM_P2
2023/05/16 00:02:11;;;;;;;;;;;;;;;9.26;100.00;101814.28;5003156;28;19925;-71
2023/05/16 00:04:36;;;;;;;;;;;;;;;9.13;100.00;101824.84;5007708;28;20043;-71
2023/05/16 00:07:02;;;;;;;;;;;;;;;9.13;100.00;101824.84;5003573;28;19932;-71
2023/05/16 00:09:27;;;;;;;;;;;;;;;9.15;100.00;101822.94;5004226;28;21077;-71
2023/05/16 00:11:52;;;;;;;;;;;;;;;8.99;100.00;101822.94;5002765;28;19963;-71
2023/05/16 00:14:18;;;;;;;;;;;;;;;9.04;100.00;101824.50;5005183;28;19921;-71
2023/05/16 00:16:44;;;;;;;;;;;;;;;9.01;100.00;101836.22;5007993;28;19925;-71
2023/05/16 00:19:09;;;;;;;;;;;;;;;9.00;100.00;101830.00;4989251;28;20281;-71
2023/05/16 00:21:35;;;;;;;;;;;;;;;9.02;100.00;101835.28;5008438;28;20372;-71
2023/05/16 00:24:00;;;;;;;;;;;;;;;8.95;100.00;101831.22;5005169;28;19920;-71
2023/05/16 00:26:26;;;;;;;;;;;;;;;9.07;100.00;101835.88;5007174;28;19926;-71
2023/05/16 00:28:51;;;;;;;;;;;;;;;8.97;100.00;101834.69;5005334;28;19981;-71
2023/05/16 00:31:17;;;;;;;;;;;;;;;9.05;100.00;101835.09;5001012;28;20916;-71
2023/05/16 00:33:42;;;;;;;;;;;;;;;8.98;100.00;101834.59;5002468;28;19971;-72
2023/05/16 00:36:07;;;;;;;;;;;;;;;9.07;100.00;101832.34;5009313;28;20333;-70
2023/05/16 00:38:32;;;;;;;;;;;;;;;8.84;100.00;101811.25;4989156;28;20776;-71
2023/05/16 00:40:57;;;;;;;;;;;;;;;9.07;100.00;101843.06;5003602;28;20369;-71
2023/05/16 00:43:23;;;;;;;;;;;;;;;9.06;100.00;101849.38;5004980;28;19932;-71
2023/05/16 00:45:48;;;;;;;;;;;;;;;8.97;100.00;101846.25;4990448;28;19968;-72
2023/05/16 00:48:13;;;;;;;;;;;;;;;8.97;100.00;101834.69;5015178;28;20363;-71
2023/05/16 00:50:38;;;;;;;;;;;;;;;8.92;100.00;101842.09;4995594;28;20456;-71
2023/05/16 00:53:04;;;;;;;;;;;;;;;8.90;100.00;101834.13;5002037;28;20369;-71
2023/05/16 00:55:29;;;;;;;;;;;;;;;8.79;100.00;101839.22;4995696;28;20442;-71
2023/05/16 00:57:54;;;;;;;;;;;;;;;8.78;100.00;101845.53;4985144;28;19924;-71
2023/05/16 01:00:20;;;;;;;;;;;;;;;8.67;100.00;101838.94;5002598;28;19927;-71
2023/05/16 01:02:46;;;;;;;;;;;;;;;8.53;100.00;101836.16;5011256;28;19928;-71
2023/05/16 01:05:11;;;;;;;;;;;;;;;8.55;100.00;101844.97;5008887;28;19926;-71
2023/05/16 01:07:37;;;;;;;;;;;;;;;8.47;100.00;101847.13;5013671;28;19956;-71
2023/05/16 01:10:02;;;;;;;;;;;;;;;8.45;100.00;101852.59;5007825;28;20302;-70
2023/05/16 01:12:37;;;;;;;;;;;;;;;8.37;100.00;101849.44;5008305;28;19921;-71
2023/05/16 01:15:09;;;;;;;;;;;;;;;8.40;100.00;101844.78;4990647;28;19943;-71
2023/05/16 01:17:42;;;;;;;;;;;;;;;8.42;100.00;101852.75;4990562;28;19925;-71
2023/05/16 01:20:10;;;;;;;;;;;;;;;8.34;100.00;101850.44;4992393;28;20022;-71
2023/05/16 01:22:53;;;;;;;;;;;;;;;8.38;100.00;101851.16;5012961;28;20545;-71
2023/05/16 01:25:21;;;;;;;;;;;;;;;8.32;100.00;101856.84;5006083;28;19921;-71
2023/05/16 01:27:46;;;;;;;;;;;;;;;8.30;100.00;101856.03;5009475;28;21113;-71
2023/05/16 01:30:15;;;;;;;;;;;;;;;8.23;100.00;101860.84;4996073;28;19925;-71
2023/05/16 01:32:41;;;;;;;;;;;;;;;8.07;100.00;101860.78;5011379;28;19944;-71
2023/05/16 01:35:06;;;;;;;;;;;;;;;8.07;100.00;101864.34;5017489;28;20443;-71
2023/05/16 01:37:34;;;;;;;;;;;;;;;8.06;100.00;101864.41;4989384;28;20305;-71
2023/05/16 01:40:06;;;;;;;;;;;;;;;8.01;100.00;101853.06;4993323;28;19939;-71
2023/05/16 01:42:31;;;;;;;;;;;;;;;7.94;100.00;101850.72;4994138;28;20428;-71
2023/05/16 01:45:11;;;;;;;;;;;;;;;7.93;100.00;101856.13;5000965;28;19926;-71
2023/05/16 01:47:37;;;;;;;;;;;;;;;7.93;100.00;101853.44;5005020;28;20438;-71
2023/05/16 01:50:08;;;;;;;;;;;;;;;7.90;100.00;101859.84;4993853;28;19925;-71
2023/05/16 01:52:34;;;;;;;;;;;;;;;7.89;100.00;101865.25;4996652;28;20024;-71
2023/05/16 01:54:59;;;;;;;;;;;;;;;7.87;100.00;101868.00;4998857;28;20337;-71
2023/05/16 01:57:25;;;;;;;;;;;;;;;7.81;100.00;101873.66;5011187;28;20412;-71
2023/05/16 01:59:50;;;;;;;;;;;;;;;7.78;100.00;101865.78;4993403;28;20073;-71
2023/05/16 02:02:18;;;;;;;;;;;;;;;7.74;100.00;101875.78;5010010;28;19944;-71
2023/05/16 02:04:44;;;;;;;;;;;;;;;7.64;100.00;101875.34;4993512;28;20020;-71
2023/05/16 02:07:09;;;;;;;;;;;;;;;7.54;100.00;101878.56;5011785;28;19944;-71
2023/05/16 02:09:34;;;;;;;;;;;;;;;7.58;100.00;101881.00;4992526;28;20067;-71
2023/05/16 02:12:00;;;;;;;;;;;;;;;7.52;100.00;101881.28;4977863;28;19932;-71
2023/05/16 02:14:25;;;;;;;;;;;;;;;7.53;100.00;101882.16;5012029;28;20379;-71
2023/05/16 02:16:50;;;;;;;;;;;;;;;7.47;100.00;101880.63;5014564;28;20011;-71
2023/05/16 02:19:15;;;;;;;;;;;;;;;7.46;100.00;101884.25;4972211;28;20035;-71
2023/05/16 02:21:41;;;;;;;;;;;;;;;7.38;100.00;101884.63;4990502;28;19958;-71
2023/05/16 02:24:06;;;;;;;;;;;;;;;7.34;100.00;101883.03;4985638;28;20679;-71
2023/05/16 02:26:31;;;;;;;;;;;;;;;7.23;100.00;101888.03;5008637;28;19925;-71
2023/05/16 02:28:57;;;;;;;;;;;;;;;7.20;100.00;101897.03;5006897;28;19975;-71
2023/05/16 02:31:26;;;;;;;;;;;;;;;7.12;100.00;101893.88;4991808;28;20241;-71
2023/05/16 02:33:51;;;;;;;;;;;;;;;7.10;100.00;101896.59;5004942;28;19921;-71
2023/05/16 02:36:16;;;;;;;;;;;;;;;7.12;100.00;101894.72;4999698;28;20351;-71
2023/05/16 02:38:41;;;;;;;;;;;;;;;7.16;100.00;101892.75;4978436;28;20006;-71
2023/05/16 02:41:06;;;;;;;;;;;;;;;7.16;100.00;101896.31;4974007;28;19947;-71
2023/05/16 02:43:32;;;;;;;;;;;;;;;7.10;100.00;101901.94;5004818;28;19913;-71
2023/05/16 02:45:57;;;;;;;;;;;;;;;6.98;100.00;101894.50;4992686;28;20004;-71
2023/05/16 02:48:22;;;;;;;;;;;;;;;6.95;100.00;101910.66;5012550;28;20056;-71
2023/05/16 02:50:47;;;;;;;;;;;;;;;6.94;100.00;101911.59;5007026;28;19939;-71
2023/05/16 02:53:13;;;;;;;;;;;;;;;6.94;100.00;101914.28;4987512;28;19925;-71
2023/05/16 02:55:38;;;;;;;;;;;;;;;6.97;100.00;101917.66;4979952;28;19931;-71
2023/05/16 02:58:03;;;;;;;;;;;;;;;7.04;100.00;101916.44;5002790;28;19943;-71
2023/05/16 03:00:29;;;;;;;;;;;;;;;7.11;100.00;101919.69;5011714;28;20044;-71
2023/05/16 03:02:54;;;;;;;;;;;;;;;7.02;100.00;101920.09;5003352;28;19943;-71
2023/05/16 03:05:19;;;;;;;;;;;;;;;7.10;100.00;101912.63;5014469;28;20019;-71
2023/05/16 03:07:45;;;;;;;;;;;;;;;7.12;100.00;101923.25;5004910;28;20557;-71
2023/05/16 03:10:10;;;;;;;;;;;;;;;7.22;100.00;101927.22;4990580;28;19925;-71
2023/05/16 03:12:35;;;;;;;;;;;;;;;7.29;100.00;101925.13;5004513;28;20357;-72
2023/05/16 03:15:01;;;;;;;;;;;;;;;7.34;100.00;101928.44;5007171;28;20039;-71
2023/05/16 03:17:26;;;;;;;;;;;;;;;7.28;100.00;101929.59;5008173;28;20032;-71
2023/05/16 03:19:51;;;;;;;;;;;;;;;7.28;100.00;101926.09;5006820;28;19921;-71
2023/05/16 03:22:16;;;;;;;;;;;;;;;7.31;100.00;101933.94;4984227;28;20047;-71
2023/05/16 03:24:42;;;;;;;;;;;;;;;7.31;100.00;101929.47;4976437;28;19929;-71
2023/05/16 03:27:07;;;;;;;;;;;;;;;7.34;100.00;101933.78;4991926;28;19921;-71
2023/05/16 03:29:32;;;;;;;;;;;;;;;7.32;100.00;101928.53;5002480;28;20131;-71
2023/05/16 03:31:57;;;;;;;;;;;;;;;7.36;100.00;101931.91;4983143;28;19971;-71
2023/05/16 03:34:23;;;;;;;;;;;;;;;7.25;100.00;101921.72;4971641;28;20064;-71
2023/05/16 03:36:48;;;;;;;;;;;;;;;7.24;100.00;101937.84;4986038;28;19960;-71
2023/05/16 03:39:14;;;;;;;;;;;;;;;7.18;100.00;101937.19;4977705;28;20023;-71
2023/05/16 03:41:39;;;;;;;;;;;;;;;7.20;100.00;101937.09;5007362;28;19956;-71
2023/05/16 03:44:05;;;;;;;;;;;;;;;7.15;100.00;101945.34;4989727;28;20392;-71
2023/05/16 03:46:30;;;;;;;;;;;;;;;7.16;100.00;101952.41;5003197;28;19925;-70
2023/05/16 03:48:55;;;;;;;;;;;;;;;7.10;100.00;101954.50;4973162;28;20387;-71
2023/05/16 03:51:20;;;;;;;;;;;;;;;7.03;100.00;101957.44;5007543;28;20006;-71
2023/05/16 03:53:46;;;;;;;;;;;;;;;6.98;100.00;101962.13;5004859;28;19924;-71
2023/05/16 03:56:11;;;;;;;;;;;;;;;6.99;100.00;101960.34;5001841;28;19928;-71
2023/05/16 03:58:36;;;;;;;;;;;;;;;6.96;100.00;101960.47;4982413;28;19952;-71
2023/05/16 04:01:02;;;;;;;;;;;;;;;6.91;100.00;101963.31;4994699;28;20323;-71
2023/05/16 04:03:28;;;;;;;;;;;;;;;6.92;100.00;101966.88;5005721;28;20671;-71
2023/05/16 04:05:54;;;;;;;;;;;;;;;6.87;100.00;101967.09;5008351;28;20360;-71
2023/05/16 04:08:20;;;;;;;;;;;;;;;6.81;100.00;101970.88;5007618;28;19984;-71
2023/05/16 04:10:45;;;;;;;;;;;;;;;6.64;100.00;101970.75;5009411;28;19929;-71
2023/05/16 04:13:10;;;;;;;;;;;;;;;6.43;100.00;101947.56;4988594;28;19921;-71
2023/05/16 04:15:35;;;;;;;;;;;;;;;6.55;100.00;101974.69;5008814;28;19978;-71
2023/05/16 04:18:01;;;;;;;;;;;;;;;6.55;100.00;101978.19;4989197;28;20042;-71
2023/05/16 04:20:26;;;;;;;;;;;;;;;6.57;100.00;101978.16;5011618;28;19925;-71
2023/05/16 04:22:52;;;;;;;;;;;;;;;6.44;100.00;101962.66;5012938;28;20067;-71
2023/05/16 04:25:17;;;;;;;;;;;;;;;6.59;100.00;101978.97;4993441;28;19925;-71
2023/05/16 04:27:42;;;;;;;;;;;;;;;6.63;100.00;101983.22;4997918;28;19959;-71
2023/05/16 04:30:10;;;;;;;;;;;;;;;6.62;100.00;101978.84;5007137;28;19999;-71
2023/05/16 04:32:35;;;;;;;;;;;;;;;6.64;100.00;101984.09;5008412;28;19921;-71
2023/05/16 04:35:01;;;;;;;;;;;;;;;6.60;100.00;101986.88;4987258;28;19928;-71
2023/05/16 04:37:26;;;;;;;;;;;;;;;6.57;100.00;101991.50;4993171;28;19956;-71
2023/05/16 04:39:53;;;;;;;;;;;;;;;6.59;100.00;101994.97;4982449;28;19960;-71
2023/05/16 04:42:18;;;;;;;;;;;;;;;6.55;100.00;102004.03;4988814;28;20307;-71
2023/05/16 04:44:43;;;;;;;;;;;;;;;6.59;100.00;102003.84;4982404;28;19925;-71
2023/05/16 04:47:08;;;;;;;;;;;;;;;6.58;100.00;102003.91;4990620;28;19968;-71
2023/05/16 04:49:34;;;;;;;;;;;;;;;6.65;100.00;102008.03;4991598;28;20151;-71
2023/05/16 04:51:59;;;;;;;;;;;;;;;6.69;100.00;102006.97;5009775;28;19924;-71
2023/05/16 04:54:25;;;;;;;;;;;;;;;6.72;100.00;102011.31;5021547;28;19927;-71
2023/05/16 04:56:50;;;;;;;;;;;;;;;6.73;100.00;102018.41;5020052;28;19921;-71
2023/05/16 04:59:15;;;;;;;;;;;;;;;6.74;100.00;102007.66;5002305;28;20423;-71
2023/05/16 05:01:40;;;;;;;;;;;;;;;6.81;100.00;102010.91;5017881;28;19925;-70
2023/05/16 05:04:06;;;;;;;;;;;;;;;6.84;100.00;102013.44;4984594;28;20454;-71
2023/05/16 05:06:31;;;;;;;;;;;;;;;6.90;100.00;102015.88;4992815;28;20277;-71
2023/05/16 05:08:56;;;;;;;;;;;;;;;6.99;100.00;102014.59;5011902;28;20390;-70
2023/05/16 05:11:22;;;;;;;;;;;;;;;7.07;100.00;102016.91;5004840;28;19975;-72
2023/05/16 05:13:47;;;;;;;;;;;;;;;7.16;100.00;102012.97;5003678;28;19933;-71
2023/05/16 05:16:12;;;;;;;;;;;;;;;7.28;100.00;102016.91;5010657;28;20371;-71
2023/05/16 05:18:37;;;;;;;;;;;;;;;7.39;100.00;102014.59;5012018;28;20422;-71
2023/05/16 05:21:02;;;;;;;;;;;;;;;7.42;100.00;102013.59;5000273;28;19924;-71
2023/05/16 05:23:29;;;;;;;;;;;;;;;7.52;100.00;102019.41;4993500;28;20056;-71
2023/05/16 05:25:54;;;;;;;;;;;;;;;7.60;100.00;102019.91;5008446;28;19921;-71
2023/05/16 05:28:19;;;;;;;;;;;;;;;7.67;100.00;102023.19;5008964;28;20124;-71
2023/05/16 05:30:45;;;;;;;;;;;;;;;7.79;100.00;102028.81;4998449;28;20347;-70
2023/05/16 05:33:12;;;;;;;;;;;;;;;7.91;100.00;102026.47;5005385;28;20323;-71
2023/05/16 05:35:38;;;;;;;;;;;;;;;8.03;100.00;102023.22;5008352;28;19944;-70
2023/05/16 05:38:03;;;;;;;;;;;;;;;8.14;100.00;102028.06;5010875;28;20023;-71
2023/05/16 05:40:28;;;;;;;;;;;;;;;8.26;100.00;102035.47;5018472;28;20048;-71
2023/05/16 05:42:53;;;;;;;;;;;;;;;8.37;100.00;102031.41;4991314;28;19959;-70
2023/05/16 05:45:18;;;;;;;;;;;;;;;8.43;100.00;102032.91;5009354;28;19968;-71
2023/05/16 05:47:44;;;;;;;;;;;;;;;8.58;100.00;102040.22;5005871;28;19921;-70
2023/05/16 05:50:14;;;;;;;;;;;;;;;8.73;100.00;102038.59;4996141;28;19929;-70
2023/05/16 05:52:39;;;;;;;;;;;;;;;8.86;100.00;102038.81;5001817;28;20797;-71
2023/05/16 05:55:05;;;;;;;;;;;;;;;8.89;100.00;102038.63;5015208;28;19927;-70
2023/05/16 05:57:30;;;;;;;;;;;;;;;9.07;100.00;102044.84;5004253;28;19925;-71
2023/05/16 05:59:55;;;;;;;;;;;;;;;9.24;100.00;102035.94;4992901;28;19921;-70
2023/05/16 06:02:20;;;;;;;;;;;;;;;9.26;100.00;102039.41;4998212;28;20329;-71
2023/05/16 06:04:46;;;;;;;;;;;;;;;9.47;100.00;102044.56;4997802;28;20351;-70
2023/05/16 06:07:11;;;;;;;;;;;;;;;9.68;100.00;102036.28;4980114;28;20347;-70
2023/05/16 06:09:36;;;;;;;;;;;;;;;9.80;100.00;102042.81;5008123;28;20389;-70
2023/05/16 06:12:03;;;;;;;;;;;;;;;9.83;100.00;102045.28;5000886;28;19956;-70
2023/05/16 06:14:28;;;;;;;;;;;;;;;9.87;100.00;102053.13;5014300;28;19971;-71
2023/05/16 06:16:53;;;;;;;;;;;;;;;9.96;100.00;102050.84;5007944;28;19925;-70
2023/05/16 06:19:18;;;;;;;;;;;;;;;10.12;100.00;102053.53;5010363;28;22291;-71
2023/05/16 06:21:43;;;;;;;;;;;;;;;10.31;100.00;102054.25;5010626;28;20397;-71
2023/05/16 06:24:09;;;;;;;;;;;;;;;10.32;100.00;102058.66;4992456;28;21689;-70
2023/05/16 06:26:35;;;;;;;;;;;;;;;10.44;100.00;102062.50;4999823;28;19925;-70
2023/05/16 06:29:00;;;;;;;;;;;;;;;10.22;100.00;102057.44;4991201;28;19925;-70
2023/05/16 06:31:25;;;;;;;;;;;;;;;10.32;100.00;102060.47;5011535;28;20036;-71
2023/05/16 06:33:50;;;;;;;;;;;;;;;10.35;100.00;102060.28;5015436;28;21089;-70
2023/05/16 06:36:16;;;;;;;;;;;;;;;10.44;100.00;102054.44;4996560;28;19972;-71
2023/05/16 06:38:41;;;;;;;;;;;;;;;10.53;100.00;102061.09;5014329;28;20039;-71
2023/05/16 06:41:06;;;;;;;;;;;;;;;10.64;100.00;102063.13;5006818;28;19921;-70
2023/05/16 06:43:32;;;;;;;;;;;;;;;10.67;100.00;102056.72;5010848;28;20702;-70
2023/05/16 06:45:57;;;;;;;;;;;;;;;10.76;100.00;102061.56;5000501;28;20357;-71
2023/05/16 06:48:22;;;;;;;;;;;;;;;10.83;100.00;102060.25;5015558;28;20443;-72
2023/05/16 06:50:48;;;;;;;;;;;;;;;10.93;100.00;102065.91;5014770;28;20360;-71
2023/05/16 06:53:13;;;;;;;;;;;;;;;10.95;100.00;102062.19;4995969;28;19932;-70
2023/05/16 06:55:38;;;;;;;;;;;;;;;11.01;100.00;102057.41;5017813;28;19968;-72
2023/05/16 06:58:04;;;;;;;;;;;;;;;11.01;100.00;102063.63;4996189;28;19920;-71
2023/05/16 07:00:29;;;;;;;;;;;;;;;11.12;100.00;102057.63;5009790;28;20006;-71
2023/05/16 07:02:54;;;;;;;;;;;;;;;11.20;100.00;102049.09;5007797;28;20014;-70
2023/05/16 07:05:19;;;;;;;;;;;;;;;11.35;100.00;102058.88;5012348;28;20517;-72
2023/05/16 07:07:45;;;;;;;;;;;;;;;11.31;100.00;102056.50;5008070;28;20302;-71
2023/05/16 07:10:10;;;;;;;;;;;;;;;11.33;100.00;102062.63;5010141;28;20016;-71
2023/05/16 07:12:37;;;;;;;;;;;;;;;11.31;100.00;102057.34;4991693;28;20433;-70
2023/05/16 07:15:02;;;;;;;;;;;;;;;11.56;100.00;102066.56;4991621;28;19921;-71
2023/05/16 07:17:27;;;;;;;;;;;;;;;11.75;100.00;102060.06;4982616;28;19948;-70
2023/05/16 07:19:53;;;;;;;;;;;;;;;11.92;100.00;102064.38;4994405;28;19922;-70
2023/05/16 07:22:18;;;;;;;;;;;;;;;11.99;100.00;102071.09;4979214;28;19931;-70
2023/05/16 07:24:43;;;;;;;;;;;;;;;12.05;100.00;102075.25;5009655;28;20204;-70
2023/05/16 07:27:09;;;;;;;;;;;;;;;12.22;100.00;102069.63;5004862;28;19956;-70
2023/05/16 07:29:36;;;;;;;;;;;;;;;12.38;100.00;102073.97;4994401;28;19921;-70
2023/05/16 07:32:01;;;;;;;;;;;;;;;12.01;99.51;102069.16;5000896;28;19921;-70
2023/05/16 07:34:26;;;;;;;;;;;;;;;11.98;100.00;102069.31;5007082;28;19956;-71
2023/05/16 07:36:51;;;;;;;;;;;;;;;12.06;100.00;102069.75;4991890;28;20012;-71
2023/05/16 07:39:16;;;;;;;;;;;;;;;12.29;100.00;102070.06;4994305;28;19925;-70
2023/05/16 07:41:42;;;;;;;;;;;;;;;12.20;99.54;102076.03;5007607;28;20431;-71
2023/05/16 07:44:07;;;;;;;;;;;;;;;12.44;96.92;102074.47;5009059;28;20324;-70
2023/05/16 07:46:32;;;;;;;;;;;;;;;12.32;86.40;102075.25;5008373;28;20422;-73
2023/05/16 07:48:57;;;;;;;;;;;;;;;12.56;91.27;102071.91;4993659;28;20442;-71
2023/05/16 07:51:23;;;;;;;;;;;;;;;12.83;91.97;102079.09;4991245;28;19928;-70
2023/05/16 07:53:48;;;;;;;;;;;;;;;13.07;89.00;102083.78;5007596;28;19921;-70
2023/05/16 07:56:13;;;;;;;;;;;;;;;12.90;90.71;102085.81;5009406;28;19925;-70
2023/05/16 07:58:40;;;;;;;;;;;;;;;13.43;96.54;102076.84;5006753;28;19961;-71
2023/05/16 08:01:05;;;;;;;;;;;;;;;13.54;83.57;102076.91;4991394;28;20400;-70
2023/05/16 08:03:30;;;;;;;;;;;;;;;13.46;89.61;102082.03;4990779;28;19964;-71
2023/05/16 08:05:55;;;;;;;;;;;;;;;12.96;84.76;102084.50;4992300;28;19948;-72
2023/05/16 08:08:21;;;;;;;;;;;;;;;12.76;85.40;102067.88;4985751;28;20325;-71
2023/05/16 08:10:46;;;;;;;;;;;;;;;12.78;86.65;102078.53;4968135;28;19968;-73
2023/05/16 08:13:11;;;;;;;;;;;;;;;12.82;86.49;102080.94;4976990;28;20023;-71
2023/05/16 08:15:36;;;;;;;;;;;;;;;13.43;86.28;102084.94;5007472;28;20669;-70
2023/05/16 08:18:02;;;;;;;;;;;;;;;13.61;81.78;102085.47;4992798;28;19921;-71
2023/05/16 08:20:27;;;;;;;;;;;;;;;14.02;88.04;102083.47;5004847;28;19967;-72
2023/05/16 08:22:53;;;;;;;;;;;;;;;14.03;75.85;102082.50;4971403;28;19971;-72
2023/05/16 08:25:18;;;;;;;;;;;;;;;14.24;81.61;102080.03;4975111;28;19978;-71
2023/05/16 08:27:44;;;;;;;;;;;;;;;14.44;77.52;102069.56;4972401;28;20458;-71
2023/05/16 08:30:10;;;;;;;;;;;;;;;14.75;75.18;102072.69;4987239;28;19964;-71
2023/05/16 08:32:36;;;;;;;;;;;;;;;14.50;74.33;102071.81;5004361;28;19957;-71
2023/05/16 08:35:01;;;;;;;;;;;;;;;14.32;78.19;102083.03;4995749;28;20054;-71
2023/05/16 08:37:26;;;;;;;;;;;;;;;14.62;72.00;102078.16;4994751;28;20039;-70
2023/05/16 08:39:52;;;;;;;;;;;;;;;14.81;68.25;102083.06;4977535;28;19956;-70
2023/05/16 08:42:17;;;;;;;;;;;;;;;14.70;64.86;102079.31;4988852;28;20349;-71
2023/05/16 08:44:42;;;;;;;;;;;;;;;14.95;66.76;102073.88;4992772;28;19964;-71
2023/05/16 08:47:14;;;;;;;;;;;;;;;15.13;73.25;102075.16;4997160;28;19920;-71
2023/05/16 08:49:42;;;;;;;;;;;;;;;14.93;66.61;102065.91;4996134;28;19961;-71
2023/05/16 08:52:08;;;;;;;;;;;;;;;15.30;73.48;102083.81;4987537;28;20005;-70
2023/05/16 08:54:33;;;;;;;;;;;;;;;15.32;63.73;102067.44;4992421;28;20328;-71
2023/05/16 08:56:58;;;;;;;;;;;;;;;14.82;68.96;102066.72;4993031;28;19996;-72
2023/05/16 08:59:23;;;;;;;;;;;;;;;14.73;63.27;102069.25;4966038;28;20263;-72
2023/05/16 09:01:49;;;;;;;;;;;;;;;14.66;64.88;102069.72;4975838;28;19971;-72
2023/05/16 09:04:14;;;;;;;;;;;;;;;14.95;67.63;102066.66;4988633;28;19925;-72
2023/05/16 09:06:40;;;;;;;;;;;;;;;14.96;66.68;102078.31;4992598;28;20355;-71
2023/05/16 09:09:07;;;;;;;;;;;;;;;14.90;63.32;102085.06;5005137;28;20432;-72
2023/05/16 09:11:32;;;;;;;;;;;;;;;14.60;63.67;102074.69;4995246;28;20249;-73
2023/05/16 09:13:57;;;;;;;;;;;;;;;14.39;71.26;102081.63;4976709;28;20016;-72
2023/05/16 09:16:23;;;;;;;;;;;;;;;14.20;70.60;102082.09;4979605;28;19921;-72
2023/05/16 09:18:55;;;;;;;;;;;;;;;13.80;70.73;102090.38;4978744;28;20611;-72
2023/05/16 09:21:21;;;;;;;;;;;;;;;14.03;78.11;102085.19;4969293;28;20375;-71
2023/05/16 09:23:47;;;;;;;;;;;;;;;14.05;77.08;102094.00;4994920;28;19936;-72
2023/05/16 09:26:13;;;;;;;;;;;;;;;14.16;73.87;102095.97;4981552;28;20636;-73
2023/05/16 09:28:38;;;;;;;;;;;;;;;14.21;75.57;102088.34;5014401;28;19959;-71
2023/05/16 09:31:08;;;;;;;;;;;;;;;14.17;72.45;102100.38;5013905;28;20441;-72
2023/05/16 09:33:33;;;;;;;;;;;;;;;13.77;74.46;102104.13;4992342;28;20375;-73
2023/05/16 09:35:59;;;;;;;;;;;;;;;13.31;71.74;102098.25;5014848;28;19935;-72
2023/05/16 09:38:25;;;;;;;;;;;;;;;13.42;70.25;102100.22;5010964;28;19925;-70
2023/05/16 09:40:50;;;;;;;;;;;;;;;13.22;71.07;102104.31;5018252;28;19928;-71
2023/05/16 09:43:16;;;;;;;;;;;;;;;13.37;72.67;102101.50;4999175;28;19921;-71
2023/05/16 09:45:44;;;;;;;;;;;;;;;13.35;70.24;102099.78;5016697;28;19921;-71
2023/05/16 09:48:13;;;;;;;;;;;;;;;13.68;70.93;102088.59;5011000;28;19928;-71
2023/05/16 09:50:38;;;;;;;;;;;;;;;14.42;67.44;102090.47;5020779;28;19925;-70
2023/05/16 09:53:03;;;;;;;;;;;;;;;15.05;72.11;102093.84;5014969;28;19921;-71
2023/05/16 09:55:29;;;;;;;;;;;;;;;15.30;65.56;102100.91;4983076;28;20415;-72
2023/05/16 09:57:54;;;;;;;;;;;;;;;15.48;71.03;102091.47;4995691;28;19940;-71
2023/05/16 10:00:20;;;;;;;;;;;;;;;15.49;62.12;102085.06;5020741;28;19921;-71
2023/05/16 10:02:45;;;;;;;;;;;;;;;15.47;62.70;102093.31;5020882;28;19966;-72
2023/05/16 10:05:10;;;;;;;;;;;;;;;15.93;64.71;102086.06;5006883;28;19940;-72
2023/05/16 10:07:35;;;;;;;;;;;;;;;16.12;67.75;102080.03;5015200;28;20470;-72
2023/05/16 10:10:05;;;;;;;;;;;;;;;16.49;64.66;102084.25;5000778;28;19991;-71
2023/05/16 10:12:31;;;;;;;;;;;;;;;16.66;66.66;102096.41;5014102;28;20508;-70
2023/05/16 10:14:56;;;;;;;;;;;;;;;16.57;65.52;102089.03;4989347;28;19937;-70
2023/05/16 10:17:23;;;;;;;;;;;;;;;16.26;66.65;102089.72;4998950;28;19921;-70
2023/05/16 10:19:48;;;;;;;;;;;;;;;15.84;60.36;102084.94;5002155;28;20368;-71
2023/05/16 10:22:13;;;;;;;;;;;;;;;15.30;66.99;102094.63;5017410;28;20007;-70
2023/05/16 10:24:42;;;;;;;;;;;;;;;15.94;71.18;102090.50;5007068;28;19931;-71
2023/05/16 10:27:08;;;;;;;;;;;;;;;16.69;64.78;102084.41;5005461;28;20267;-70
2023/05/16 10:29:33;;;;;;;;;;;;;;;17.39;59.31;102077.53;5004692;28;19925;-71
2023/05/16 10:31:59;;;;;;;;;;;;;;;17.88;56.52;102076.88;5000074;28;19952;-70
2023/05/16 10:34:24;;;;;;;;;;;;;;;18.21;56.28;102071.31;5005088;28;20036;-70
2023/05/16 10:36:49;;;;;;;;;;;;;;;17.37;56.64;102087.66;5018808;28;20369;-71
2023/05/16 10:39:14;;;;;;;;;;;;;;;17.12;52.25;102080.81;5012436;28;20303;-71
2023/05/16 10:41:40;;;;;;;;;;;;;;;17.29;53.55;102081.19;5001865;28;20367;-70
2023/05/16 10:44:07;;;;;;;;;;;;;;;16.71;55.63;102072.47;4992921;28;19921;-71
2023/05/16 10:46:32;;;;;;;;;;;;;;;16.45;54.91;102069.22;4999429;28;19932;-70
2023/05/16 10:48:58;;;;;;;;;;;;;;;16.13;58.54;102076.34;4994943;28;19926;-71
2023/05/16 10:51:49;;;;;;;;;;;;;;;16.01;57.56;102070.06;4996493;28;19959;-71
2023/05/16 10:54:17;;;;;;;;;;;;;;;17.28;64.22;102077.63;5011793;28;19952;-73
2023/05/16 10:56:42;;;;;;;;;;;;;;;18.02;51.59;102064.81;4997684;28;19921;-71
2023/05/16 10:59:23;;;;;;;;;;;;;;;18.70;48.98;102076.78;5015930;28;19956;-71
2023/05/16 11:01:52;;;;;;;;;;;;;;;19.20;45.92;102070.31;4999425;28;20387;-71
2023/05/16 11:04:18;;;;;;;;;;;;;;;19.44;44.54;102064.38;4995052;28;19921;-71
2023/05/16 11:06:44;;;;;;;;;;;;;;;19.39;46.95;102066.69;5009482;28;19944;-71
2023/05/16 11:09:09;;;;;;;;;;;;;;;19.87;45.10;102058.47;5011649;28;19929;-73
2023/05/16 11:11:56;;;;;;;;;;;;;;;20.81;44.33;102079.13;5008094;28;20329;-71
2023/05/16 11:14:33;;;;;;;;;;;;;;;20.70;39.69;102062.94;4990666;28;19921;-71
2023/05/16 11:16:58;;;;;;;;;;;;;;;21.04;39.36;102059.50;5010964;28;19925;-72
2023/05/16 11:19:28;;;;;;;;;;;;;;;20.29;41.02;102059.81;4996235;28;19971;-71
2023/05/16 11:22:03;;;;;;;;;;;;;;;20.11;42.80;102063.41;5010390;28;19956;-72
2023/05/16 11:24:29;;;;;;;;;;;;;;;19.54;42.99;102067.06;5010499;28;20417;-73
2023/05/16 11:26:54;;;;;;;;;;;;;;;19.42;43.40;102069.13;5001418;28;19927;-72
2023/05/16 11:29:19;;;;;;;;;;;;;;;19.28;43.73;102064.13;4978624;28;20288;-72
2023/05/16 11:31:45;;;;;;;;;;;;;;;19.72;44.65;102061.69;4972726;28;20330;-73
2023/05/16 11:34:10;;;;;;;;;;;;;;;20.15;46.38;102055.75;5016471;28;19980;-74
2023/05/16 11:36:37;;;;;;;;;;;;;;;20.12;43.19;102053.34;5007625;28;19924;-75
2023/05/16 11:39:06;;;;;;;;;;;;;;;19.48;42.33;102060.34;5010397;28;19983;-75
2023/05/16 11:41:31;;;;;;;;;;;;;;;20.61;43.14;102056.56;4984407;28;19921;-74
2023/05/16 11:43:56;;;;;;;;;;;;;;;21.76;40.88;102065.75;4995095;28;19944;-72
2023/05/16 11:46:22;;;;;;;;;;;;;;;21.05;40.33;102063.94;4995001;28;20032;-73
2023/05/16 11:48:47;;;;;;;;;;;;;;;20.37;41.92;102068.09;4998669;28;19929;-75
2023/05/16 11:51:13;;;;;;;;;;;;;;;20.56;40.64;102074.41;5015163;28;19932;-73
2023/05/16 11:53:38;;;;;;;;;;;;;;;19.40;41.99;102072.97;4990744;28;20051;-74
2023/05/16 11:56:05;;;;;;;;;;;;;;;19.04;43.71;102079.09;4997436;28;20457;-73
2023/05/16 11:58:31;;;;;;;;;;;;;;;19.21;44.29;102076.59;4992930;28;19944;-72
2023/05/16 12:00:57;;;;;;;;;;;;;;;18.58;44.53;102073.34;5009991;28;19921;-72
2023/05/16 12:03:22;;;;;;;;;;;;;;;18.24;45.81;102076.47;5007824;28;19983;-72
2023/05/16 12:05:52;;;;;;;;;;;;;;;17.88;46.35;102081.47;5019113;28;20451;-72
2023/05/16 12:08:17;;;;;;;;;;;;;;;17.54;48.66;102088.06;5027536;28;19921;-72
2023/05/16 12:10:42;;;;;;;;;;;;;;;17.33;49.20;102091.66;4996299;28;20003;-73
2023/05/16 12:13:08;;;;;;;;;;;;;;;17.16;50.04;102093.13;4982678;28;19920;-73
2023/05/16 12:15:33;;;;;;;;;;;;;;;16.94;48.97;102086.78;4987378;28;19921;-71
2023/05/16 12:17:58;;;;;;;;;;;;;;;16.88;51.05;102095.44;5004515;28;22300;-73
2023/05/16 12:20:24;;;;;;;;;;;;;;;17.00;51.24;102096.28;4994919;28;19921;-72
2023/05/16 12:22:50;;;;;;;;;;;;;;;17.13;49.22;102097.94;4999752;28;19924;-71
2023/05/16 12:25:25;;;;;;;;;;;;;;;17.22;53.78;102098.00;5016222;28;19998;-71
2023/05/16 12:27:51;;;;;;;;;;;;;;;17.92;49.70;102097.34;5002943;28;19957;-71
2023/05/16 12:30:17;;;;;;;;;;;;;;;17.66;46.02;102095.09;5019265;28;20770;-73